createdAt,value
2017-10-04T00:00:58.482Z,87.50
2017-10-04T00:03:27.764Z,87.46
2017-10-04T00:05:56.171Z,88.19
2017-10-04T00:08:24.556Z,87.83
2017-10-04T00:10:53.855Z,87.40
2017-10-04T00:13:23.158Z,88.31
2017-10-04T00:15:52.448Z,88.51
2017-10-04T00:18:21.750Z,87.61
2017-10-04T00:20:51.038Z,88.11
2017-10-04T00:23:21.582Z,88.09
2017-10-04T00:25:50.872Z,87.42
2017-10-04T00:28:19.279Z,88.29
2017-10-04T00:30:47.638Z,88.14
2017-10-04T00:33:17.224Z,88.76
2017-10-04T00:35:45.618Z,88.96
2017-10-04T00:38:13.998Z,88.76
2017-10-04T00:40:44.549Z,88.12
2017-10-04T00:43:13.836Z,87.37
2017-10-04T00:45:43.145Z,87.83
2017-10-04T00:48:12.430Z,88.39
2017-10-04T00:50:55.804Z,88.00
2017-10-04T00:53:24.249Z,88.10
2017-10-04T00:55:53.838Z,87.91
2017-10-04T00:58:22.235Z,88.10
2017-10-04T01:00:50.611Z,88.64
2017-10-04T01:03:19.008Z,88.65
2017-10-04T01:05:48.306Z,88.26
2017-10-04T01:08:17.624Z,87.69
2017-10-04T01:10:46.046Z,88.00
2017-10-04T01:13:16.532Z,87.78
2017-10-04T01:15:45.810Z,88.34
2017-10-04T01:18:14.216Z,88.47
2017-10-04T01:20:43.512Z,87.46
2017-10-04T01:23:17.375Z,87.85
2017-10-04T01:25:51.586Z,87.93
2017-10-04T01:28:20.140Z,88.52
2017-10-04T01:30:49.617Z,88.56
2017-10-04T01:33:18.925Z,88.01
2017-10-04T01:35:48.241Z,87.89
2017-10-04T01:38:16.578Z,87.32
2017-10-04T01:40:44.988Z,87.15
2017-10-04T01:43:14.321Z,87.84
2017-10-04T01:45:55.518Z,88.24
2017-10-04T01:48:23.958Z,88.32
2017-10-04T01:50:54.769Z,87.58
2017-10-04T01:53:23.155Z,87.51
2017-10-04T01:55:51.549Z,87.54
2017-10-04T01:58:21.766Z,88.17
2017-10-04T02:00:51.067Z,87.90
2017-10-04T02:03:20.378Z,88.43
2017-10-04T02:05:49.676Z,88.84
2017-10-04T02:08:18.974Z,88.31
2017-10-04T02:10:48.259Z,88.26
2017-10-04T02:13:16.667Z,89.01
2017-10-04T02:15:45.968Z,88.88
2017-10-04T02:18:15.056Z,88.59
2017-10-04T02:20:47.954Z,87.78
2017-10-04T02:23:16.329Z,87.71
2017-10-04T02:25:45.642Z,88.04
2017-10-04T02:28:14.002Z,88.22
2017-10-04T02:30:43.322Z,88.08
2017-10-04T02:33:13.832Z,87.93
2017-10-04T02:35:43.140Z,88.89
2017-10-04T02:38:12.246Z,88.29
2017-10-04T02:40:41.755Z,88.46
2017-10-04T02:43:10.112Z,89.08
2017-10-04T02:45:39.483Z,88.85
2017-10-04T02:48:07.834Z,88.37
2017-10-04T02:50:38.329Z,88.48
2017-10-04T02:53:07.640Z,88.67
2017-10-04T02:55:36.922Z,88.86
2017-10-04T02:58:05.323Z,88.96
2017-10-04T03:00:34.390Z,88.44
2017-10-04T03:03:03.921Z,87.54
2017-10-04T03:05:33.229Z,87.89
2017-10-04T03:08:02.520Z,87.97
2017-10-04T03:10:31.821Z,87.97
2017-10-04T03:13:02.041Z,87.45
2017-10-04T03:15:31.343Z,87.58
2017-10-04T03:18:01.546Z,87.25
2017-10-04T03:20:29.960Z,87.37
2017-10-04T03:22:59.065Z,86.92
2017-10-04T03:25:31.336Z,87.07
2017-10-04T03:28:01.853Z,87.16
2017-10-04T03:30:31.420Z,87.01
2017-10-04T03:32:59.827Z,86.90
2017-10-04T03:35:28.204Z,86.81
2017-10-04T03:38:02.130Z,86.74
2017-10-04T03:40:31.411Z,86.69
2017-10-04T03:42:59.810Z,86.65
2017-10-04T03:45:29.090Z,86.56
2017-10-04T03:48:03.303Z,86.58
2017-10-04T03:50:31.701Z,86.38
2017-10-04T03:53:01.031Z,86.83
2017-10-04T03:55:32.744Z,87.25
2017-10-04T03:58:01.462Z,86.87
2017-10-04T04:00:30.730Z,86.58
2017-10-04T04:02:59.122Z,86.59
2017-10-04T04:05:30.901Z,86.82
2017-10-04T04:08:00.175Z,87.21
2017-10-04T04:10:28.587Z,87.04
2017-10-04T04:12:57.872Z,86.95
2017-10-04T04:15:26.272Z,86.68
2017-10-04T04:17:55.579Z,86.45
2017-10-04T04:20:26.089Z,86.57
2017-10-04T04:22:55.399Z,86.55
2017-10-04T04:25:24.673Z,86.69
2017-10-04T04:27:53.090Z,86.67
2017-10-04T04:30:22.349Z,86.70
2017-10-04T04:32:51.019Z,87.08
2017-10-04T04:35:23.138Z,86.76
2017-10-04T04:38:09.983Z,86.80
2017-10-04T04:40:42.622Z,86.77
2017-10-04T04:43:11.934Z,86.87
2017-10-04T04:45:41.201Z,86.88
2017-10-04T04:48:09.594Z,86.67
2017-10-04T04:50:41.677Z,86.95
2017-10-04T04:53:10.962Z,87.04
2017-10-04T04:55:43.394Z,87.18
2017-10-04T04:58:11.727Z,87.54
2017-10-04T05:00:41.094Z,87.39
2017-10-04T05:03:10.616Z,87.54
2017-10-04T05:05:39.041Z,87.68
2017-10-04T05:08:07.404Z,88.00
2017-10-04T05:10:36.696Z,87.95
2017-10-04T05:13:06.030Z,88.51
2017-10-04T05:15:36.508Z,87.97
2017-10-04T05:18:08.295Z,87.70
2017-10-04T05:20:37.577Z,88.67
2017-10-04T05:23:05.989Z,89.28
2017-10-04T05:25:35.271Z,89.96
2017-10-04T05:28:04.595Z,90.39
2017-10-04T05:30:32.939Z,90.55
2017-10-04T05:33:05.034Z,90.59
2017-10-04T05:35:34.328Z,90.84
2017-10-04T05:38:03.648Z,90.94
2017-10-04T05:40:31.997Z,90.48
2017-10-04T05:43:00.413Z,90.34
2017-10-04T05:45:32.461Z,90.25
2017-10-04T05:48:01.794Z,89.96
2017-10-04T05:50:30.138Z,90.12
2017-10-04T05:53:01.288Z,90.34
2017-10-04T05:55:30.581Z,90.52
2017-10-04T05:57:58.984Z,89.92
2017-10-04T06:00:29.564Z,90.23
2017-10-04T06:02:57.914Z,90.69
2017-10-04T06:05:26.238Z,91.12
2017-10-04T06:07:54.637Z,91.23
2017-10-04T06:10:23.942Z,90.78
2017-10-04T06:12:54.481Z,91.06
2017-10-04T06:15:22.832Z,90.65
2017-10-04T06:17:54.606Z,90.82
2017-10-04T06:20:23.984Z,90.54
2017-10-04T06:22:53.540Z,90.87
2017-10-04T06:25:21.902Z,90.69
2017-10-04T06:27:51.187Z,90.80
2017-10-04T06:30:20.502Z,91.22
2017-10-04T06:32:49.818Z,91.23
2017-10-04T06:35:20.356Z,91.12
2017-10-04T06:37:50.868Z,91.33
2017-10-04T06:40:20.298Z,91.83
2017-10-04T06:42:49.762Z,91.95
2017-10-04T06:45:20.302Z,91.74
2017-10-04T06:47:49.606Z,91.62
2017-10-04T06:50:19.845Z,91.13
2017-10-04T06:52:48.246Z,91.04
2017-10-04T06:55:16.596Z,90.95
2017-10-04T06:57:45.932Z,91.29
2017-10-04T07:00:14.241Z,90.91
2017-10-04T07:02:43.888Z,91.12
2017-10-04T07:05:15.033Z,91.02
2017-10-04T07:07:44.338Z,90.41
2017-10-04T07:10:14.856Z,90.25
2017-10-04T07:12:44.169Z,90.11
2017-10-04T07:15:15.281Z,90.03
2017-10-04T07:17:43.663Z,89.78
2017-10-04T07:20:14.517Z,89.59
2017-10-04T07:22:45.020Z,89.42
2017-10-04T07:25:14.859Z,89.09
2017-10-04T07:27:46.801Z,88.96
2017-10-04T07:30:16.826Z,88.86
2017-10-04T07:32:45.521Z,88.64
2017-10-04T07:35:15.290Z,88.53
2017-10-04T07:37:45.228Z,88.52
2017-10-04T07:40:14.838Z,88.40
2017-10-04T07:42:45.085Z,88.09
2017-10-04T07:45:15.055Z,87.96
2017-10-04T07:47:47.037Z,88.17
2017-10-04T07:50:16.217Z,88.21
2017-10-04T07:52:46.056Z,87.88
2017-10-04T07:55:18.051Z,87.80
2017-10-04T07:57:48.273Z,87.49
2017-10-04T08:00:18.334Z,87.62
2017-10-04T08:02:48.270Z,87.51
2017-10-04T08:05:17.791Z,87.00
2017-10-04T08:07:48.723Z,86.88
2017-10-04T08:10:20.676Z,86.60
2017-10-04T08:12:51.379Z,86.32
2017-10-04T08:15:21.416Z,86.48
2017-10-04T08:17:49.964Z,86.40
2017-10-04T08:20:19.878Z,86.07
2017-10-04T08:22:49.171Z,85.94
2017-10-04T08:25:17.562Z,85.90
2017-10-04T08:27:46.849Z,85.96
2017-10-04T08:30:15.243Z,86.04
2017-10-04T08:32:44.558Z,85.80
2017-10-04T08:35:13.967Z,85.94
2017-10-04T08:37:42.294Z,86.16
2017-10-04T08:40:10.614Z,85.22
2017-10-04T08:42:39.961Z,85.21
2017-10-04T08:45:08.362Z,85.06
2017-10-04T08:47:58.278Z,84.92
2017-10-04T08:50:27.551Z,84.58
2017-10-04T08:52:55.903Z,84.24
2017-10-04T08:55:24.233Z,84.42
2017-10-04T08:57:53.572Z,84.40
2017-10-04T09:00:21.915Z,84.40
2017-10-04T09:02:51.263Z,84.47
2017-10-04T09:05:37.386Z,84.30
2017-10-04T09:08:05.851Z,83.19
2017-10-04T09:10:34.217Z,83.12
2017-10-04T09:13:02.579Z,83.03
2017-10-04T09:15:30.941Z,82.65
2017-10-04T09:18:00.274Z,82.24
2017-10-04T09:20:28.636Z,81.94
2017-10-04T09:22:57.001Z,81.79
2017-10-04T09:25:26.302Z,82.12
2017-10-04T09:27:55.586Z,77.77
2017-10-04T09:30:23.998Z,76.60
2017-10-04T09:32:52.359Z,77.04
2017-10-04T09:35:21.668Z,76.37
2017-10-04T09:37:50.971Z,75.45
2017-10-04T09:40:20.267Z,75.49
2017-10-04T09:42:49.585Z,75.02
2017-10-04T09:45:20.645Z,74.41
2017-10-04T09:47:49.142Z,74.70
2017-10-04T09:50:17.478Z,75.95
2017-10-04T09:52:46.787Z,74.77
2017-10-04T09:55:15.139Z,74.05
2017-10-04T09:57:45.701Z,72.96
2017-10-04T10:00:14.067Z,72.57
2017-10-04T10:02:43.349Z,72.37
2017-10-04T10:05:11.774Z,72.87
2017-10-04T10:07:40.107Z,72.74
2017-10-04T10:10:08.534Z,72.14
2017-10-04T10:12:36.894Z,73.04
2017-10-04T10:15:06.182Z,71.42
2017-10-04T10:17:35.205Z,71.88
2017-10-04T10:20:04.167Z,71.69
2017-10-04T10:22:33.513Z,71.28
2017-10-04T10:25:04.027Z,71.95
2017-10-04T10:27:34.576Z,71.53
2017-10-04T10:30:05.087Z,71.59
2017-10-04T10:32:35.641Z,71.98
2017-10-04T10:35:03.979Z,71.58
2017-10-04T10:37:33.321Z,71.84
2017-10-04T10:40:01.677Z,72.30
2017-10-04T10:42:30.043Z,71.70
2017-10-04T10:44:59.389Z,70.43
2017-10-04T10:47:27.762Z,70.07
2017-10-04T10:49:56.143Z,70.06
2017-10-04T10:52:24.479Z,70.03
2017-10-04T10:54:53.793Z,69.45
2017-10-04T10:57:22.181Z,69.34
2017-10-04T10:59:50.550Z,69.64
2017-10-04T11:02:19.851Z,69.60
2017-10-04T11:04:49.134Z,68.58
2017-10-04T11:07:17.562Z,69.40
2017-10-04T11:09:45.903Z,70.06
2017-10-04T11:12:15.223Z,67.56
2017-10-04T11:14:43.592Z,67.81
2017-10-04T11:17:12.882Z,65.82
2017-10-04T11:19:42.199Z,65.78
2017-10-04T11:22:11.528Z,65.89
2017-10-04T11:24:39.935Z,65.89
2017-10-04T11:27:09.490Z,65.67
2017-10-04T11:29:38.774Z,67.03
2017-10-04T11:32:09.401Z,67.33
2017-10-04T11:34:38.934Z,67.01
2017-10-04T11:37:07.373Z,66.27
2017-10-04T11:39:36.923Z,64.16
2017-10-04T11:42:06.496Z,64.31
2017-10-04T11:44:34.882Z,61.52
2017-10-04T11:47:03.289Z,63.28
2017-10-04T11:49:32.605Z,62.66
2017-10-04T11:52:00.972Z,63.04
2017-10-04T11:54:30.280Z,63.14
2017-10-04T11:56:58.625Z,62.87
2017-10-04T11:59:27.031Z,61.18
2017-10-04T12:01:56.631Z,62.08
2017-10-04T12:04:25.957Z,62.10
2017-10-04T12:06:54.335Z,62.00
2017-10-04T12:09:22.693Z,62.67
2017-10-04T12:11:52.033Z,62.58
2017-10-04T12:14:20.384Z,60.53
2017-10-04T12:16:48.821Z,62.05
2017-10-04T12:19:17.143Z,60.39
2017-10-04T12:21:46.457Z,61.93
2017-10-04T12:24:14.857Z,61.11
2017-10-04T12:26:43.178Z,61.05
2017-10-04T12:29:13.478Z,60.20
2017-10-04T12:31:41.808Z,60.84
2017-10-04T12:34:11.227Z,61.33
2017-10-04T12:36:39.566Z,60.79
2017-10-04T12:39:07.916Z,60.44
2017-10-04T12:41:36.263Z,60.44
2017-10-04T12:44:04.614Z,60.75
2017-10-04T12:46:33.963Z,61.63
2017-10-04T12:49:02.296Z,61.31
2017-10-04T12:51:32.486Z,60.77
2017-10-04T12:54:00.901Z,60.61
2017-10-04T12:56:30.195Z,59.28
2017-10-04T12:58:58.619Z,59.60
2017-10-04T13:01:26.979Z,59.44
2017-10-04T13:03:56.292Z,59.50
2017-10-04T13:06:24.647Z,58.99
2017-10-04T13:08:54.039Z,61.13
2017-10-04T13:11:22.369Z,60.18
2017-10-04T13:13:50.729Z,59.44
2017-10-04T13:16:19.115Z,59.88
2017-10-04T13:18:47.471Z,59.96
2017-10-04T13:21:16.811Z,59.59
2017-10-04T13:23:45.154Z,60.12
2017-10-04T13:26:14.463Z,59.51
2017-10-04T13:28:42.870Z,60.65
2017-10-04T13:31:11.269Z,60.94
2017-10-04T13:33:39.630Z,59.59
2017-10-04T13:36:07.995Z,59.82
2017-10-04T13:38:38.669Z,60.30
2017-10-04T13:41:07.775Z,60.28
2017-10-04T13:43:36.172Z,60.19
2017-10-04T13:46:04.606Z,59.91
2017-10-04T13:48:32.936Z,60.76
2017-10-04T13:51:01.350Z,60.54
2017-10-04T13:53:29.704Z,60.75
2017-10-04T13:55:59.045Z,60.46
2017-10-04T13:58:27.398Z,60.34
2017-10-04T14:00:57.994Z,60.14
2017-10-04T14:03:27.550Z,60.37
2017-10-04T14:05:55.925Z,60.80
2017-10-04T14:08:25.247Z,60.86
2017-10-04T14:10:54.522Z,62.33
2017-10-04T14:13:23.844Z,62.17
2017-10-04T14:15:53.121Z,61.06
2017-10-04T14:18:22.454Z,62.17
2017-10-04T14:20:52.938Z,60.87
2017-10-04T14:23:24.772Z,62.80
2017-10-04T14:25:53.124Z,62.16
2017-10-04T14:28:21.483Z,61.50
2017-10-04T14:30:49.860Z,62.21
2017-10-04T14:33:18.235Z,63.79
2017-10-04T14:35:47.583Z,63.05
2017-10-04T14:38:18.066Z,61.67
2017-10-04T14:40:47.425Z,61.42
2017-10-04T14:43:15.777Z,61.42
2017-10-04T14:45:44.125Z,61.70
2017-10-04T14:48:13.464Z,62.70
2017-10-04T14:50:42.710Z,62.05
2017-10-04T14:53:11.145Z,62.88
2017-10-04T14:55:39.490Z,63.71
2017-10-04T14:58:08.809Z,61.96
2017-10-04T15:00:37.147Z,62.51
2017-10-04T15:03:05.622Z,62.61
2017-10-04T15:05:33.965Z,62.81
2017-10-04T15:08:03.212Z,63.12
2017-10-04T15:10:31.647Z,62.80
2017-10-04T15:13:00.032Z,63.79
2017-10-04T15:15:28.407Z,63.92
2017-10-04T15:17:56.751Z,64.52
2017-10-04T15:20:26.057Z,63.97
2017-10-04T15:22:55.360Z,63.65
2017-10-04T15:25:24.643Z,63.28
2017-10-04T15:27:53.073Z,63.27
2017-10-04T15:30:21.413Z,63.49
2017-10-04T15:32:50.736Z,64.21
2017-10-04T15:35:20.027Z,64.13
2017-10-04T15:37:49.325Z,64.27
2017-10-04T15:40:18.633Z,64.08
2017-10-04T15:42:47.925Z,64.76
2017-10-04T15:45:17.347Z,66.28
2017-10-04T15:47:45.695Z,65.32
2017-10-04T15:50:14.058Z,65.25
2017-10-04T15:52:42.433Z,65.06
2017-10-04T15:55:10.793Z,66.47
2017-10-04T15:57:39.151Z,66.25
2017-10-04T16:00:07.505Z,65.43
2017-10-04T16:02:36.851Z,65.03
2017-10-04T16:05:05.227Z,65.50
2017-10-04T16:07:35.796Z,65.74
2017-10-04T16:10:04.127Z,65.01
2017-10-04T16:12:32.480Z,66.35
2017-10-04T16:15:01.804Z,66.36
2017-10-04T16:17:32.735Z,65.73
2017-10-04T16:20:01.081Z,65.43
2017-10-04T16:22:29.413Z,65.75
2017-10-04T16:24:57.803Z,67.47
2017-10-04T16:27:28.287Z,67.88
2017-10-04T16:29:57.654Z,68.86
2017-10-04T16:32:26.003Z,67.77
2017-10-04T16:34:54.357Z,66.77
2017-10-04T16:37:23.663Z,68.98
2017-10-04T16:39:52.022Z,68.32
2017-10-04T16:42:21.427Z,67.95
2017-10-04T16:44:51.563Z,68.32
2017-10-04T16:47:20.998Z,68.96
2017-10-04T16:49:49.548Z,68.00
2017-10-04T16:52:19.499Z,69.03
2017-10-04T16:54:47.847Z,70.83
2017-10-04T16:57:17.145Z,68.61
2017-10-04T16:59:45.602Z,68.57
2017-10-04T17:02:13.937Z,68.78
2017-10-04T17:04:42.306Z,68.52
2017-10-04T17:07:10.660Z,68.64
2017-10-04T17:09:39.958Z,70.42
2017-10-04T17:12:09.279Z,71.39
2017-10-04T17:14:37.624Z,72.31
2017-10-04T17:17:07.895Z,72.20
2017-10-04T17:19:36.239Z,72.05
2017-10-04T17:22:05.806Z,72.55
2017-10-04T17:24:34.252Z,71.69
2017-10-04T17:27:02.607Z,70.34
2017-10-04T17:29:32.007Z,70.11
2017-10-04T17:32:01.534Z,70.67
2017-10-04T17:34:30.868Z,72.45
2017-10-04T17:36:59.194Z,72.25
2017-10-04T17:39:27.613Z,71.60
2017-10-04T17:41:58.117Z,71.35
2017-10-04T17:44:28.378Z,71.60
2017-10-04T17:46:56.934Z,71.72
2017-10-04T17:49:25.411Z,71.63
2017-10-04T17:51:54.719Z,71.48
2017-10-04T17:54:25.861Z,71.34
2017-10-04T17:56:55.200Z,71.53
2017-10-04T17:59:28.147Z,71.72
2017-10-04T18:01:57.491Z,71.71
2017-10-04T18:04:25.837Z,72.59
2017-10-04T18:06:55.146Z,71.86
2017-10-04T18:09:24.509Z,71.83
2017-10-04T18:11:52.846Z,72.08
2017-10-04T18:14:21.332Z,72.24
2017-10-04T18:16:49.809Z,72.57
2017-10-04T18:19:18.691Z,72.58
2017-10-04T18:21:47.019Z,72.53
2017-10-04T18:24:15.349Z,72.19
2017-10-04T18:26:43.757Z,72.61
2017-10-04T18:29:12.095Z,73.07
2017-10-04T18:31:40.475Z,73.01
2017-10-04T18:34:09.582Z,73.10
2017-10-04T18:36:38.239Z,72.97
2017-10-04T18:39:06.568Z,73.03
2017-10-04T18:41:34.920Z,73.17
2017-10-04T18:44:03.278Z,73.48
2017-10-04T18:46:32.386Z,73.58
2017-10-04T18:49:00.742Z,73.45
2017-10-04T18:51:29.076Z,73.99
2017-10-04T18:53:57.727Z,74.42
2017-10-04T18:56:26.834Z,74.32
2017-10-04T18:58:55.153Z,73.76
2017-10-04T19:01:23.516Z,73.94
2017-10-04T19:03:51.846Z,74.32
2017-10-04T19:06:20.191Z,74.23
2017-10-04T19:08:48.512Z,74.11
2017-10-04T19:11:17.157Z,74.21
2017-10-04T19:13:46.169Z,74.34
2017-10-04T19:16:14.500Z,74.11
2017-10-04T19:18:42.850Z,74.88
2017-10-04T19:21:11.192Z,74.76
2017-10-04T19:23:39.572Z,74.75
2017-10-04T19:26:07.907Z,74.61
2017-10-04T19:28:37.041Z,74.58
2017-10-04T19:31:05.408Z,74.50
2017-10-04T19:33:33.759Z,74.79
2017-10-04T19:36:02.140Z,74.86
2017-10-04T19:38:30.484Z,74.70
2017-10-04T19:40:58.833Z,75.23
2017-10-04T19:43:27.173Z,76.35
2017-10-04T19:45:56.593Z,77.11
2017-10-04T19:48:24.949Z,77.14
2017-10-04T19:50:53.275Z,77.89
2017-10-04T19:53:21.616Z,77.70
2017-10-04T19:55:50.699Z,77.90
2017-10-04T19:58:19.041Z,77.92
2017-10-04T20:00:47.379Z,78.09
2017-10-04T20:03:15.762Z,78.25
2017-10-04T20:05:44.118Z,78.72
2017-10-04T20:08:13.217Z,78.84
2017-10-04T20:10:41.574Z,79.66
2017-10-04T20:13:09.912Z,79.46
2017-10-04T20:15:38.256Z,79.59
2017-10-04T20:18:07.361Z,79.36
2017-10-04T20:20:35.698Z,80.01
2017-10-04T20:23:04.058Z,80.20
2017-10-04T20:25:32.390Z,80.32
2017-10-04T20:28:01.517Z,80.67
2017-10-04T20:30:29.836Z,81.05
2017-10-04T20:32:58.190Z,81.19
2017-10-04T20:35:26.572Z,81.20
2017-10-04T20:37:54.938Z,81.65
2017-10-04T20:40:24.221Z,81.69
2017-10-04T20:42:53.317Z,81.24
2017-10-04T20:45:21.657Z,82.18
2017-10-04T20:47:49.984Z,82.24
2017-10-04T20:50:19.679Z,82.07
2017-10-04T20:52:49.974Z,82.62
2017-10-04T20:55:18.294Z,82.07
2017-10-04T20:57:46.646Z,81.79
2017-10-04T21:00:14.996Z,81.67
2017-10-04T21:02:43.505Z,82.42
2017-10-04T21:05:11.823Z,82.35
2017-10-04T21:07:40.496Z,82.71
2017-10-04T21:10:08.830Z,82.61
2017-10-04T21:12:37.174Z,83.11
2017-10-04T21:15:05.517Z,83.25
2017-10-04T21:17:33.886Z,83.44
2017-10-04T21:20:02.272Z,83.56
2017-10-04T21:22:30.605Z,83.83
2017-10-04T21:24:59.215Z,83.53
2017-10-04T21:27:27.570Z,82.85
2017-10-04T21:29:55.899Z,82.38
2017-10-04T21:32:24.232Z,82.29
2017-10-04T21:34:52.575Z,82.72
2017-10-04T21:37:21.696Z,82.49
2017-10-04T21:39:50.024Z,82.69
2017-10-04T21:42:18.367Z,82.63
2017-10-04T21:44:46.706Z,82.93
2017-10-04T21:47:15.806Z,82.92
2017-10-04T21:49:44.165Z,83.48
2017-10-04T21:52:12.492Z,83.37
2017-10-04T21:54:40.883Z,83.46
2017-10-04T21:57:09.253Z,83.39
2017-10-04T21:59:37.608Z,83.90
2017-10-04T22:02:06.932Z,84.09
2017-10-04T22:04:35.279Z,83.95
2017-10-04T22:07:04.998Z,84.27
2017-10-04T22:09:33.352Z,84.21
2017-10-04T22:12:01.676Z,83.82
2017-10-04T22:14:30.035Z,84.01
2017-10-04T22:16:59.136Z,83.81
2017-10-04T22:19:27.482Z,83.69
2017-10-04T22:21:55.814Z,83.40
2017-10-04T22:24:24.161Z,83.48
2017-10-04T22:26:53.269Z,83.17
2017-10-04T22:29:21.606Z,83.24
2017-10-04T22:31:49.953Z,83.06
2017-10-04T22:34:18.262Z,82.94
2017-10-04T22:36:46.623Z,82.80
2017-10-04T22:39:14.955Z,82.61
2017-10-04T22:41:43.319Z,82.66
2017-10-04T22:44:11.656Z,82.49
2017-10-04T22:46:39.981Z,82.67
2017-10-04T22:49:09.102Z,82.72
2017-10-04T22:51:37.501Z,82.54
2017-10-04T22:54:05.834Z,82.45
2017-10-04T22:56:34.173Z,82.63
2017-10-04T22:59:02.514Z,82.45
2017-10-04T23:01:31.620Z,82.54
2017-10-04T23:03:59.956Z,82.65
2017-10-04T23:06:28.317Z,82.51
2017-10-04T23:08:57.135Z,82.48
2017-10-04T23:11:25.945Z,82.37
2017-10-04T23:13:54.289Z,82.37
2017-10-04T23:16:22.605Z,82.23
2017-10-04T23:18:51.731Z,82.28
2017-10-04T23:21:20.039Z,82.06
2017-10-04T23:23:48.377Z,82.37
2017-10-04T23:26:16.709Z,82.38
2017-10-04T23:28:45.532Z,82.11
2017-10-04T23:31:13.896Z,82.04
2017-10-04T23:33:42.238Z,82.03
2017-10-04T23:36:10.594Z,82.36
2017-10-04T23:38:38.916Z,82.33
2017-10-04T23:41:07.267Z,82.38
2017-10-04T23:43:35.622Z,82.26
2017-10-04T23:46:03.975Z,82.13
2017-10-04T23:48:32.295Z,82.25
2017-10-04T23:51:00.639Z,82.21
2017-10-04T23:53:29.688Z,82.33
2017-10-04T23:55:58.019Z,82.36
2017-10-04T23:58:26.360Z,82.18
